Terminal Aerodrome Forecast
Issued by NWS Wichita, KS

Home | Current Version | Previous Version | Text Only | Print | Product List | Glossary On
Versions: 1 2 3 4 5 6 7 8 9 10 11 12 13 14 15 16 17 18 19 20 21
000
FTUS43 KICT 202023 AAA
TAFICT
TAF AMD
KICT 202023Z 2020/2118 01012KT P6SM SCT200
     FM210000 04007KT P6SM SCT100
     FM211200 08008KT P6SM VCSH SCT025 OVC060=

USA.gov is the U.S. government's official web portal to all federal, state and local government web resources and services.